Aérodrome :







RETROUVEZ-NOUS SUR...

 
LOGIN :

S'inscrire | Disclaimer

   EN    FR    IT 

 









Légende :    VFR   VFR Marginal   IFR   IFR Intensif   IFR Très Intensif
Visi : 
Plafond : 
>= 8 km
>= 3000ft
5 à 8 km
1000 à 3000 ft
1500m à 5 km
500 à 1000 ft
800 à 1500m
200 à 500 ft
< 800m
< 200 ft
Symboles :   Orages  Brouillard  Fortes neiges  Fortes précipitations  Vent > 20 kt






- Altitude de l'aérodrome : 180 ft
- Code IATA : YZV


CYZV - Sept-Iles

METARs EXPIRÉS :
  • 071300Z CCA 17006KT 30SM FEW007 SCT020 BKN150 BKN250 16/13 A3016 RMK CF2CU2AC1CI2 SLP217
  • 071200Z 15006KT 30SM FEW008 SCT050 BKN150 BKN260 16/13 A3016 RMK CU2SC2AC1CI3 AC TR SLP215

TAF TAF CYZV
Valide du 07 à 12h jusqu'au 08 à 12h UTC


071139Z 0712/0812 VRB03KT P6SM FEW004 FEW020 SCT220
TEMPO 0712/0713 5SM BR
FM071300 12007KT P6SM FEW008
BECMG 0713/0715 17010KT
FM080000 08008KT P6SM BKN070 OVC170
FM080400 09007KT P6SM -RA SCT006 BKN050 OVC100
PROB40 0804/0807 2SM -RA BR BKN006 OVC040
FM080700 09006KT 1SM -RA -DZ BR OVC005
PROB30 0807/0811 1/4SM -DZ FG VV001 RMK NXT FCST BY 071800Z
FIR CZUL / Amérique du Nord



MET'MAP, la Météo Aéronautique d'un coup d'oeil ! - Copyright ORBIFLY Décembre 2007 - Disclaimer

ORBIFLY MET'MAP TEAM :

Programmation & Développement : Alexandra Zaïnal
Sur une idée originale de : Baudouin d'Aumeries
Assistance à la programmation : Marc-Olivier Méhu
Soutien technique & logistique : Manuel Goepfert

Contact : metmap@orbifly.com




SOURCES & CREDITS :

   NOAA